Time;durP1;ratioP1;P1;durP2;ratioP2;P2;SDS_P1;SDS_P2;PMS_P1;PMS_P2;Temp;Humidity;BMP_temperature;BMP_pressure;BME280_temperature;BME280_humidity;BME280_pressure;Samples;Min_cycle;Max_cycle;Signal;HPM_P1;HPM_P2
2023/06/13 00:04:10;;;;;;;5.90;3.90;;;;;;;20.74;34.22;99451.94;10360241;28;20341;-67
2023/06/13 00:09:12;;;;;;;6.47;4.53;;;;;;;21.73;33.94;99420.41;10370032;28;20600;-67
2023/06/13 00:14:18;;;;;;;5.07;4.15;;;;;;;21.51;33.52;99419.75;10364926;28;20709;-67
2023/06/13 00:19:20;;;;;;;5.25;4.15;;;;;;;20.33;34.34;99438.84;10359491;28;20276;-66
2023/06/13 00:24:22;;;;;;;4.95;4.30;;;;;;;21.63;33.50;99425.81;10373104;28;20225;-66
2023/06/13 00:29:24;;;;;;;4.97;4.47;;;;;;;20.71;34.23;99445.09;10362632;28;20708;-68
2023/06/13 00:34:26;;;;;;;5.35;4.43;;;;;;;22.18;32.95;99426.22;10366923;28;20236;-68
2023/06/13 00:39:27;;;;;;;7.70;4.10;;;;;;;19.38;35.73;99447.22;10367207;28;20641;-64
2023/06/13 00:44:29;;;;;;;6.50;4.47;;;;;;;20.04;35.19;99433.66;10369008;28;20224;-64
2023/06/13 00:49:31;;;;;;;4.13;3.72;;;;;;;19.10;36.12;99432.75;10367238;28;20205;-68
2023/06/13 00:54:36;;;;;;;5.43;4.03;;;;;;;18.92;36.97;99414.88;10363914;28;20312;-67
2023/06/13 00:59:38;;;;;;;7.37;4.10;;;;;;;19.30;36.84;99409.69;10367867;28;20216;-68
2023/06/13 01:04:41;;;;;;;7.30;4.45;;;;;;;17.63;38.80;99390.19;10358002;28;20241;-67
2023/06/13 01:09:43;;;;;;;6.43;4.90;;;;;;;18.19;38.01;99392.28;10366128;28;20240;-68
2023/06/13 01:14:55;;;;;;;5.57;5.03;;;;;;;19.09;37.24;99382.28;10363523;28;20240;-68
2023/06/13 01:20:04;;;;;;;6.47;4.47;;;;;;;19.23;36.89;99382.75;10366844;28;20215;-66
2023/06/13 01:25:12;;;;;;;7.40;4.50;;;;;;;18.86;37.56;99385.19;10367558;28;20316;-65
2023/06/13 01:30:15;;;;;;;5.90;4.33;;;;;;;19.46;36.88;99365.38;10364685;28;20217;-67
2023/06/13 01:35:18;;;;;;;5.43;4.80;;;;;;;17.98;38.26;99391.09;10367825;28;20225;-67
2023/06/13 01:40:20;;;;;;;5.73;4.53;;;;;;;17.51;39.53;99373.13;10361055;28;20276;-68
2023/06/13 01:45:23;;;;;;;9.03;5.37;;;;;;;18.17;38.38;99360.03;10361337;28;20312;-67
2023/06/13 01:50:39;;;;;;;7.57;4.77;;;;;;;16.91;39.89;99369.72;10374870;28;20300;-67
2023/06/13 01:56:04;;;;;;;6.23;4.77;;;;;;;17.57;39.47;99361.34;10363555;28;20217;-68
2023/06/13 02:01:07;;;;;;;6.27;5.27;;;;;;;17.49;39.29;99375.25;10359730;28;20621;-67
2023/06/13 02:06:09;;;;;;;5.40;4.43;;;;;;;17.56;39.46;99381.34;10363999;28;21029;-69
2023/06/13 02:11:11;;;;;;;6.60;4.33;;;;;;;17.80;39.12;99373.16;10364129;28;20212;-71
2023/06/13 02:16:14;;;;;;;6.17;4.63;;;;;;;17.97;38.70;99360.50;10362995;28;20663;-69
2023/06/13 02:21:15;;;;;;;6.60;4.57;;;;;;;17.66;39.27;99362.66;10366188;28;20891;-69
2023/06/13 02:26:17;;;;;;;5.63;4.37;;;;;;;17.99;38.71;99358.34;10360086;28;20229;-72
2023/06/13 02:31:19;;;;;;;5.60;4.30;;;;;;;18.67;37.94;99333.19;10364078;28;20751;-71
2023/06/13 02:36:20;;;;;;;6.23;4.57;;;;;;;17.66;39.25;99354.53;10364720;28;20225;-71
2023/06/13 02:41:22;;;;;;;5.23;4.10;;;;;;;17.44;39.28;99364.34;10366765;28;20430;-68
2023/06/13 02:46:24;;;;;;;7.00;4.30;;;;;;;16.37;40.59;99353.63;10363410;28;20315;-67
2023/06/13 02:51:26;;;;;;;6.20;4.27;;;;;;;16.29;41.04;99355.84;10370614;28;20209;-69
2023/06/13 02:56:29;;;;;;;7.90;4.70;;;;;;;17.24;40.17;99321.47;10367898;28;20282;-67
2023/06/13 03:01:30;;;;;;;6.37;4.60;;;;;;;16.68;40.18;99353.53;10357038;28;20255;-69
2023/06/13 03:06:32;;;;;;;5.50;3.97;;;;;;;16.90;40.42;99345.63;10364713;28;20235;-67
2023/06/13 03:11:34;;;;;;;6.47;4.93;;;;;;;16.71;40.30;99353.06;10361291;28;20216;-70
2023/06/13 03:16:35;;;;;;;5.83;3.90;;;;;;;16.28;40.98;99357.75;10364082;28;20330;-69
2023/06/13 03:21:37;;;;;;;6.10;4.70;;;;;;;16.74;40.61;99352.59;10368484;28;20222;-67
2023/06/13 03:26:39;;;;;;;7.60;4.07;;;;;;;17.09;39.88;99357.97;10364502;28;20261;-71
2023/06/13 03:31:41;;;;;;;8.30;4.43;;;;;;;16.43;40.39;99373.47;10360384;28;20244;-70
2023/06/13 03:36:43;;;;;;;5.43;4.20;;;;;;;16.64;40.52;99382.06;10362113;28;20220;-69
2023/06/13 03:41:45;;;;;;;6.53;4.73;;;;;;;16.40;40.87;99400.94;10363128;28;20248;-70
2023/06/13 03:46:47;;;;;;;6.40;4.20;;;;;;;16.91;40.34;99372.41;10365157;28;20231;-70
2023/06/13 03:51:49;;;;;;;4.73;4.23;;;;;;;17.14;40.19;99381.56;10361018;28;20646;-70
2023/06/13 03:56:51;;;;;;;6.13;4.33;;;;;;;16.25;40.74;99423.78;10367242;28;20256;-68
2023/06/13 04:01:52;;;;;;;5.67;4.47;;;;;;;16.73;39.98;99423.88;10364924;28;20723;-72
2023/06/13 04:06:55;;;;;;;8.03;4.23;;;;;;;17.82;39.20;99414.34;10361809;28;20789;-69
2023/06/13 04:11:57;;;;;;;6.27;4.27;;;;;;;16.46;40.61;99459.41;10374422;28;20252;-68
2023/06/13 04:17:02;;;;;;;4.73;3.87;;;;;;;17.48;39.83;99433.13;10378346;28;20229;-68
2023/06/13 04:22:05;;;;;;;5.13;4.13;;;;;;;16.76;40.58;99456.63;10364465;28;20761;-70
2023/06/13 04:27:08;;;;;;;6.73;4.00;;;;;;;16.53;40.94;99465.53;10368215;28;20241;-68
2023/06/13 04:32:13;;;;;;;5.23;3.97;;;;;;;16.39;40.71;99480.31;10365364;28;20209;-68
2023/06/13 04:37:25;;;;;;;5.77;4.20;;;;;;;18.38;38.42;99482.28;10372479;28;20320;-71
2023/06/13 04:42:27;;;;;;;7.50;3.70;;;;;;;19.19;38.12;99462.97;10367841;28;20225;-67
2023/06/13 04:47:33;;;;;;;4.40;3.53;;;;;;;18.16;39.29;99501.06;10371284;28;20237;-69
2023/06/13 04:52:55;;;;;;;5.80;3.83;;;;;;;19.26;38.08;99479.88;10366780;28;20228;-70
2023/06/13 04:57:57;;;;;;;6.43;4.10;;;;;;;18.57;38.89;99523.50;10368271;28;20316;-70
2023/06/13 05:03:00;;;;;;;10.33;3.90;;;;;;;18.66;39.32;99500.38;10365455;28;20785;-70
2023/06/13 05:08:03;;;;;;;6.60;4.30;;;;;;;18.25;39.28;99519.41;10363313;28;20700;-71
2023/06/13 05:13:05;;;;;;;7.60;3.70;;;;;;;19.42;38.51;99470.09;10369876;28;20366;-71
2023/06/13 05:18:07;;;;;;;5.13;3.60;;;;;;;18.70;39.17;99500.69;10357117;28;20235;-70
2023/06/13 05:23:10;;;;;;;5.43;3.40;;;;;;;20.94;36.35;99449.38;10367472;28;20232;-72
2023/06/13 05:28:12;;;;;;;6.23;3.67;;;;;;;20.14;37.00;99495.38;10367390;28;20232;-71
2023/06/13 05:33:14;;;;;;;5.17;3.60;;;;;;;20.56;37.29;99478.41;10371335;28;20258;-71
2023/06/13 05:38:15;;;;;;;8.67;3.97;;;;;;;18.55;38.41;99577.13;10370081;28;20238;-71
2023/06/13 05:43:20;;;;;;;6.10;3.53;;;;;;;19.23;38.23;99553.63;10372676;28;20229;-71
2023/06/13 05:48:22;;;;;;;4.03;3.53;;;;;;;20.21;37.77;99492.50;10372644;28;20243;-71
2023/06/13 05:53:24;;;;;;;5.18;3.55;;;;;;;19.15;38.50;99524.22;10370052;28;20633;-71
2023/06/13 05:58:26;;;;;;;5.10;3.40;;;;;;;20.52;37.17;99458.28;10370448;28;20252;-70
2023/06/13 06:03:28;;;;;;;8.77;4.00;;;;;;;20.08;37.33;99499.94;10365416;28;20265;-69
2023/06/13 06:08:30;;;;;;;5.65;3.63;;;;;;;19.57;37.41;99559.03;10362604;28;20291;-71
2023/06/13 06:13:32;;;;;;;6.15;3.60;;;;;;;18.82;38.61;99553.75;10367095;28;20260;-69
2023/06/13 06:18:33;;;;;;;4.60;3.42;;;;;;;20.52;36.78;99490.91;10369706;28;20284;-68
2023/06/13 06:23:37;;;;;;;7.78;3.60;;;;;;;20.55;36.23;99520.28;10358719;28;20222;-67
2023/06/13 06:28:39;;;;;;;6.07;3.67;;;;;;;19.71;37.38;99579.31;10373848;28;20672;-70
2023/06/13 06:33:41;;;;;;;4.93;3.15;;;;;;;20.33;36.57;99523.06;10367495;28;20297;-69
2023/06/13 06:38:43;;;;;;;4.65;3.20;;;;;;;20.15;36.08;99543.19;10371406;28;20229;-69
2023/06/13 06:43:44;;;;;;;7.65;3.50;;;;;;;20.85;35.80;99503.44;10367298;28;20300;-70
2023/06/13 06:48:46;;;;;;;6.22;3.33;;;;;;;19.29;36.43;99562.66;10361633;28;20269;-71
2023/06/13 06:53:49;;;;;;;3.95;3.40;;;;;;;20.31;35.04;99563.22;10360973;28;20681;-70
2023/06/13 06:58:51;;;;;;;9.27;3.20;;;;;;;20.47;34.65;99540.59;10365890;28;20319;-70
2023/06/13 07:03:53;;;;;;;4.95;3.20;;;;;;;19.80;35.48;99563.41;10371387;28;20252;-70
2023/06/13 07:08:55;;;;;;;5.78;3.33;;;;;;;20.80;34.19;99516.16;10361626;28;20216;-70
2023/06/13 07:13:56;;;;;;;6.32;3.00;;;;;;;20.58;34.77;99530.66;10366631;28;20209;-72
2023/06/13 07:18:58;;;;;;;4.75;2.80;;;;;;;21.74;33.29;99470.22;10369050;28;20245;-70
2023/06/13 07:24:00;;;;;;;7.75;3.08;;;;;;;20.23;32.65;99537.34;10371187;28;20264;-69
2023/06/13 07:29:09;;;;;;;7.70;3.30;;;;;;;20.93;32.61;99523.06;10366879;28;20209;-70
2023/06/13 07:34:11;;;;;;;5.05;2.97;;;;;;;20.60;32.90;99544.78;10376803;28;20201;-72
2023/06/13 07:39:32;;;;;;;7.82;3.30;;;;;;;21.16;31.70;99513.72;10369854;28;20220;-70
2023/06/13 07:44:34;;;;;;;8.20;3.10;;;;;;;20.98;31.63;99542.16;10366422;28;20728;-67
2023/06/13 07:49:36;;;;;;;6.15;2.80;;;;;;;19.60;32.49;99580.22;10377827;28;20797;-70
2023/06/13 07:54:38;;;;;;;6.05;3.00;;;;;;;20.85;31.62;99522.47;10383113;28;20711;-72
2023/06/13 07:59:39;;;;;;;4.45;3.20;;;;;;;21.18;31.26;99509.66;10371695;28;20582;-68
2023/06/13 08:04:41;;;;;;;4.00;2.25;;;;;;;20.60;31.67;99574.69;10377890;28;20245;-68
2023/06/13 08:09:54;;;;;;;6.50;2.65;;;;;;;20.68;30.85;99536.19;10372790;28;20217;-68
2023/06/13 08:14:56;;;;;;;4.65;3.10;;;;;;;20.39;30.88;99567.41;10377455;28;20588;-71
2023/06/13 08:19:58;;;;;;;3.83;2.65;;;;;;;20.00;31.10;99581.03;10381313;28;20292;-70
2023/06/13 08:24:59;;;;;;;4.25;2.72;;;;;;;21.47;29.99;99505.78;10375332;28;20232;-72
2023/06/13 08:30:06;;;;;;;5.18;2.90;;;;;;;21.70;30.34;99507.25;10374001;28;20752;-70
2023/06/13 08:35:08;;;;;;;5.47;3.17;;;;;;;20.66;31.05;99551.09;10366661;28;20770;-71
2023/06/13 08:40:10;;;;;;;4.25;2.50;;;;;;;21.83;30.76;99481.41;10384219;28;20242;-68
2023/06/13 08:45:13;;;;;;;3.63;2.50;;;;;;;20.78;30.36;99553.66;10381797;28;20225;-70
2023/06/13 08:50:18;;;;;;;4.68;2.80;;;;;;;21.39;30.88;99496.19;10368331;28;20205;-70
2023/06/13 08:55:24;;;;;;;5.10;2.92;;;;;;;22.59;29.75;99448.09;10375667;28;20240;-71
2023/06/13 09:00:47;;;;;;;4.82;3.20;;;;;;;22.68;30.02;99457.34;10362317;28;20219;-71
2023/06/13 09:05:50;;;;;;;7.53;2.67;;;;;;;23.36;29.62;99444.41;10373181;28;20740;-70
2023/06/13 09:10:54;;;;;;;4.90;2.88;;;;;;;22.44;30.06;99508.84;10373437;28;20215;-72
2023/06/13 09:15:56;;;;;;;4.78;2.65;;;;;;;22.85;29.41;99442.59;10374883;28;20229;-70
2023/06/13 09:20:58;;;;;;;3.53;2.95;;;;;;;21.46;29.49;99521.28;10367841;28;20205;-70
2023/06/13 09:26:02;;;;;;;6.63;3.00;;;;;;;22.08;30.42;99491.59;10372807;28;20383;-71
2023/06/13 09:31:04;;;;;;;4.63;3.20;;;;;;;22.53;30.08;99476.44;10377631;28;20806;-71
2023/06/13 09:36:07;;;;;;;6.15;2.92;;;;;;;22.82;29.32;99473.97;10371792;28;20265;-72
2023/06/13 09:41:12;;;;;;;5.20;2.80;;;;;;;23.48;28.89;99435.91;10369961;28;20780;-71
2023/06/13 09:46:14;;;;;;;5.10;2.90;;;;;;;23.11;29.51;99462.50;10383418;28;20241;-70
2023/06/13 09:51:16;;;;;;;4.75;3.40;;;;;;;22.92;29.73;99458.69;10362463;28;20216;-67
2023/06/13 09:56:18;;;;;;;6.93;3.30;;;;;;;22.81;29.87;99474.25;10372531;28;20330;-65
2023/06/13 10:01:23;;;;;;;5.22;2.88;;;;;;;23.30;29.21;99420.94;10368449;28;20249;-64
2023/06/13 10:06:25;;;;;;;5.13;2.85;;;;;;;22.74;29.38;99450.00;10370739;28;20291;-67
2023/06/13 10:11:31;;;;;;;4.97;2.78;;;;;;;23.47;29.80;99405.06;10378555;28;20900;-68
2023/06/13 10:16:44;;;;;;;4.43;2.90;;;;;;;22.80;29.25;99439.88;10367780;28;20641;-68
2023/06/13 10:22:07;;;;;;;7.78;3.00;;;;;;;24.10;28.73;99379.84;10371554;28;20223;-67
2023/06/13 10:27:12;;;;;;;4.97;3.10;;;;;;;24.16;28.97;99419.72;10359346;28;20235;-68
2023/06/13 10:32:46;;;;;;;5.05;2.70;;;;;;;23.63;28.77;99430.41;10370296;28;20216;-68
2023/06/13 10:38:05;;;;;;;6.00;3.30;;;;;;;23.58;29.51;99449.50;10356582;28;20232;-68
2023/06/13 10:43:34;;;;;;;3.50;2.63;;;;;;;25.17;28.37;99399.09;10366653;28;20267;-68
2023/06/13 10:48:46;;;;;;;3.47;3.08;;;;;;;25.30;28.03;99375.69;10354576;28;20336;-67
2023/06/13 10:54:03;;;;;;;6.22;2.92;;;;;;;24.63;28.04;99384.59;10367837;28;20209;-68
2023/06/13 10:59:07;;;;;;;4.70;2.97;;;;;;;24.12;28.31;99437.78;10357762;28;20216;-67
2023/06/13 11:06:21;;;;;;;3.25;2.80;;;;;;;23.69;28.89;99404.69;10517223;27;2104050;-66
2023/06/13 11:11:24;;;;;;;3.92;2.80;;;;;;;23.79;29.08;99398.38;10540371;28;20217;-66
2023/06/13 11:16:37;;;;;;;3.90;3.08;;;;;;;24.20;28.82;99397.28;10563039;28;20566;-67
2023/06/13 11:21:46;;;;;;;4.13;2.50;;;;;;;25.09;27.86;99347.75;10541231;28;20222;-67
2023/06/13 11:26:48;;;;;;;3.25;2.70;;;;;;;24.41;28.28;99365.13;10545989;28;20593;-66
2023/06/13 11:31:52;;;;;;;5.20;3.00;;;;;;;24.61;28.39;99364.91;10552348;28;20327;-66
2023/06/13 11:37:00;;;;;;;5.25;2.90;;;;;;;25.24;27.70;99322.94;10554243;28;20237;-67
2023/06/13 11:42:02;;;;;;;4.93;3.13;;;;;;;25.56;27.90;99339.75;10540943;28;20226;-67
2023/06/13 11:47:04;;;;;;;4.00;2.83;;;;;;;24.26;27.78;99375.09;10552229;28;20243;-67
2023/06/13 11:52:15;;;;;;;9.48;3.50;;;;;;;23.83;27.41;99404.88;10551872;28;20195;-67
2023/06/13 11:57:18;;;;;;;8.07;3.20;;;;;;;23.05;28.02;99409.00;10540818;28;20663;-65
2023/06/13 12:02:19;;;;;;;3.55;2.90;;;;;;;23.92;27.46;99400.47;10540649;28;20329;-66
2023/06/13 12:07:21;;;;;;;4.53;2.97;;;;;;;25.54;26.99;99333.75;10561685;28;20287;-66
2023/06/13 12:12:23;;;;;;;5.97;2.83;;;;;;;24.53;27.44;99360.91;10550383;28;20226;-65
2023/06/13 12:17:26;;;;;;;4.15;3.17;;;;;;;25.79;26.69;99332.56;10520605;28;20715;-66
2023/06/13 12:22:28;;;;;;;5.18;2.88;;;;;;;25.48;26.45;99350.25;10529969;28;20301;-65
2023/06/13 12:27:31;;;;;;;4.05;2.78;;;;;;;26.01;26.51;99331.94;10501207;28;20229;-67
2023/06/13 12:32:37;;;;;;;4.85;2.80;;;;;;;25.90;27.21;99317.59;10527955;28;20331;-66
2023/06/13 12:37:40;;;;;;;6.50;2.78;;;;;;;25.01;27.11;99357.41;10520352;28;20420;-67
2023/06/13 12:42:46;;;;;;;2.80;2.60;;;;;;;25.00;26.16;99369.47;10520422;28;20230;-66
2023/06/13 12:47:47;;;;;;;5.75;3.08;;;;;;;27.08;25.64;99255.06;10519244;28;20233;-67
2023/06/13 12:52:50;;;;;;;4.15;3.05;;;;;;;25.88;26.51;99325.31;10517097;28;20206;-66
2023/06/13 12:57:52;;;;;;;6.38;3.03;;;;;;;26.93;26.29;99267.19;10521724;28;20255;-66
2023/06/13 13:02:55;;;;;;;8.57;3.35;;;;;;;25.98;25.98;99327.91;10515154;28;20242;-67
2023/06/13 13:07:57;;;;;;;6.97;3.03;;;;;;;25.59;26.13;99318.06;10517343;28;20313;-66
2023/06/13 13:12:58;;;;;;;5.53;2.67;;;;;;;25.84;25.77;99314.16;10524662;28;20210;-67
2023/06/13 13:18:00;;;;;;;5.45;2.83;;;;;;;25.28;26.47;99314.94;10495713;28;20231;-67
2023/06/13 13:23:02;;;;;;;5.63;3.13;;;;;;;25.94;26.30;99287.66;10510856;28;20766;-67
2023/06/13 13:28:04;;;;;;;4.55;3.05;;;;;;;25.86;25.98;99291.94;10510821;28;20646;-65
2023/06/13 13:33:06;;;;;;;4.72;2.88;;;;;;;25.53;26.17;99302.00;10512947;28;20203;-65
2023/06/13 13:38:08;;;;;;;4.13;3.08;;;;;;;25.74;26.03;99281.41;10521413;28;20691;-66
2023/06/13 13:43:10;;;;;;;7.43;3.17;;;;;;;25.62;25.35;99278.28;10519045;28;20733;-67
2023/06/13 13:48:13;;;;;;;4.15;2.90;;;;;;;24.74;25.24;99306.00;10515564;28;20219;-66
2023/06/13 13:53:17;;;;;;;4.28;3.00;;;;;;;26.82;24.87;99243.81;10514260;28;20205;-66
2023/06/13 13:58:19;;;;;;;10.90;3.38;;;;;;;25.92;25.80;99260.56;10522787;28;20229;-65
2023/06/13 14:03:20;;;;;;;6.55;3.00;;;;;;;25.98;25.35;99277.75;10522022;28;20329;-67
2023/06/13 14:08:22;;;;;;;6.22;3.38;;;;;;;27.16;25.17;99209.59;10509939;28;20309;-69
2023/06/13 14:13:24;;;;;;;8.50;3.30;;;;;;;26.61;25.18;99259.06;10520615;28;20202;-68
2023/06/13 14:18:26;;;;;;;5.03;3.50;;;;;;;26.91;25.30;99233.75;10513012;28;20322;-66
2023/06/13 14:23:28;;;;;;;5.32;3.10;;;;;;;26.30;24.70;99245.94;10508407;28;20311;-66
2023/06/13 14:28:29;;;;;;;6.45;3.22;;;;;;;26.15;24.82;99256.06;10509312;28;20266;-67
2023/06/13 14:33:31;;;;;;;5.32;3.38;;;;;;;26.66;24.72;99239.75;10512392;28;20328;-68
2023/06/13 14:38:41;;;;;;;4.75;3.17;;;;;;;24.99;25.35;99261.09;10512172;28;20447;-65
2023/06/13 14:43:43;;;;;;;4.03;3.05;;;;;;;25.02;25.73;99255.03;10517240;28;20231;-65
2023/06/13 14:48:45;;;;;;;4.28;3.22;;;;;;;26.92;25.52;99199.69;10508855;28;20230;-66
2023/06/13 14:53:47;;;;;;;4.60;2.78;;;;;;;25.98;25.98;99226.47;10523318;28;20241;-66
2023/06/13 14:58:48;;;;;;;7.15;3.20;;;;;;;24.97;25.72;99230.50;10511789;28;20309;-68
2023/06/13 15:03:50;;;;;;;6.18;3.25;;;;;;;27.38;24.55;99178.59;10517343;28;20343;-68
2023/06/13 15:08:52;;;;;;;8.15;3.47;;;;;;;26.10;25.19;99226.00;10512371;28;20232;-68
2023/06/13 15:13:54;;;;;;;4.18;2.85;;;;;;;27.72;23.56;99176.41;10515452;28;20203;-69
2023/06/13 15:18:55;;;;;;;4.15;3.05;;;;;;;27.84;24.46;99185.69;10515502;28;20228;-68
2023/06/13 15:23:58;;;;;;;7.13;3.35;;;;;;;27.57;24.47;99186.63;10516623;28;20231;-68
2023/06/13 15:29:00;;;;;;;4.38;3.00;;;;;;;27.33;24.96;99191.63;10509368;28;20210;-68
2023/06/13 15:34:03;;;;;;;5.00;3.25;;;;;;;26.31;24.58;99228.38;10518066;28;20213;-69
2023/06/13 15:39:08;;;;;;;7.90;3.08;;;;;;;27.56;24.48;99189.69;10506788;28;20740;-67
2023/06/13 15:44:11;;;;;;;3.80;3.40;;;;;;;26.37;25.05;99224.41;10499347;28;20284;-69
2023/06/13 15:49:12;;;;;;;9.02;3.58;;;;;;;27.68;24.34;99209.16;10515441;28;20255;-68
2023/06/13 15:54:14;;;;;;;5.95;3.50;;;;;;;28.03;24.43;99188.19;10524716;28;20724;-72
2023/06/13 15:59:16;;;;;;;7.10;3.42;;;;;;;27.09;24.77;99207.28;10516049;28;20226;-70
2023/06/13 16:04:18;;;;;;;7.07;3.22;;;;;;;27.89;24.35;99206.75;10524461;28;21075;-71
2023/06/13 16:09:20;;;;;;;5.80;3.17;;;;;;;26.38;25.02;99213.16;10516791;28;20221;-69
2023/06/13 16:14:22;;;;;;;6.45;3.17;;;;;;;27.43;24.38;99180.38;10522314;28;20222;-73
2023/06/13 16:19:24;;;;;;;3.63;2.97;;;;;;;25.93;24.82;99218.34;10527061;28;20283;-71
2023/06/13 16:24:26;;;;;;;5.53;3.17;;;;;;;27.40;24.40;99170.06;10514780;28;20231;-69
2023/06/13 16:29:28;;;;;;;3.55;3.03;;;;;;;26.20;24.63;99211.28;10516376;28;20282;-70
2023/06/13 16:34:30;;;;;;;5.35;3.90;;;;;;;26.90;24.59;99185.44;10519824;28;20222;-69
2023/06/13 16:39:32;;;;;;;7.63;3.22;;;;;;;26.33;25.12;99206.94;10517403;28;20217;-70
2023/06/13 16:44:34;;;;;;;3.88;3.40;;;;;;;25.44;25.59;99216.97;10522128;28;20389;-72
2023/06/13 16:49:36;;;;;;;5.07;3.10;;;;;;;25.27;25.87;99206.53;10521044;28;20316;-71
2023/06/13 16:54:37;;;;;;;3.78;3.20;;;;;;;27.47;25.05;99184.94;10504619;28;20326;-70
2023/06/13 16:59:39;;;;;;;7.20;3.03;;;;;;;28.16;24.41;99169.19;10517171;28;20855;-70
2023/06/13 17:04:41;;;;;;;5.93;3.40;;;;;;;26.45;24.54;99229.19;10522187;28;20253;-68
2023/06/13 17:09:42;;;;;;;4.68;3.28;;;;;;;26.88;24.43;99223.38;10519622;28;20218;-69
2023/06/13 17:14:44;;;;;;;4.55;3.40;;;;;;;27.06;23.55;99221.63;10522237;28;20727;-69
2023/06/13 17:19:46;;;;;;;6.68;3.58;;;;;;;27.58;23.72;99217.66;10512352;28;20212;-70
2023/06/13 17:24:48;;;;;;;5.82;3.15;;;;;;;26.33;24.27;99243.41;10517551;28;20222;-69
2023/06/13 17:29:49;;;;;;;3.70;3.03;;;;;;;26.18;24.06;99251.88;10513478;28;20568;-68
2023/06/13 17:34:52;;;;;;;5.40;3.40;;;;;;;26.84;24.20;99227.03;10516025;28;20232;-68
2023/06/13 17:39:54;;;;;;;5.70;3.10;;;;;;;26.28;24.46;99251.72;10511492;28;20307;-70
2023/06/13 17:44:55;;;;;;;3.97;3.25;;;;;;;26.83;24.11;99250.13;10516144;28;20241;-69
2023/06/13 17:49:57;;;;;;;8.32;3.47;;;;;;;25.54;24.06;99262.53;10516975;28;20309;-69
2023/06/13 17:54:59;;;;;;;4.38;3.17;;;;;;;26.97;23.58;99245.41;10504909;28;20222;-69
2023/06/13 18:00:01;;;;;;;5.82;2.97;;;;;;;27.51;24.11;99226.34;10517476;28;20676;-71
2023/06/13 18:05:03;;;;;;;6.07;3.30;;;;;;;26.18;25.26;99233.53;10513371;28;20235;-72
2023/06/13 18:10:05;;;;;;;6.15;3.28;;;;;;;26.92;24.71;99240.88;10518835;28;20213;-70
2023/06/13 18:15:07;;;;;;;6.60;3.13;;;;;;;26.56;25.07;99254.47;10521510;28;20224;-69
2023/06/13 18:20:09;;;;;;;4.78;3.45;;;;;;;26.63;25.25;99245.84;10503329;28;20269;-68
2023/06/13 18:25:11;;;;;;;4.60;3.33;;;;;;;26.29;25.24;99252.53;10510355;28;20675;-70
2023/06/13 18:30:14;;;;;;;4.85;2.85;;;;;;;25.66;25.77;99265.63;10519158;28;20242;-73
2023/06/13 18:35:18;;;;;;;3.40;2.83;;;;;;;25.69;25.38;99259.53;10513783;28;20227;-69
2023/06/13 18:40:20;;;;;;;3.28;2.92;;;;;;;26.49;25.11;99252.16;10512753;28;20263;-73
2023/06/13 18:45:22;;;;;;;4.57;3.15;;;;;;;25.76;25.98;99261.94;10509217;28;20794;-69
2023/06/13 18:50:23;;;;;;;6.43;3.38;;;;;;;24.38;26.89;99279.03;10514680;28;20238;-73
2023/06/13 18:55:25;;;;;;;5.40;3.30;;;;;;;25.46;26.00;99270.31;10496380;28;20657;-71
2023/06/13 19:00:32;;;;;;;6.70;3.22;;;;;;;25.79;25.85;99262.16;10512158;28;20218;-71
2023/06/13 19:05:35;;;;;;;3.72;3.05;;;;;;;25.35;25.52;99284.47;10514668;28;20230;-71
2023/06/13 19:10:37;;;;;;;5.20;3.50;;;;;;;25.08;25.82;99289.44;10511796;28;20614;-68
2023/06/13 19:15:39;;;;;;;4.60;3.20;;;;;;;24.91;25.77;99302.78;10513979;28;20319;-71
2023/06/13 19:20:41;;;;;;;3.72;2.80;;;;;;;25.17;25.69;99286.88;10509219;28;20370;-71
2023/06/13 19:25:43;;;;;;;5.80;3.25;;;;;;;24.91;25.58;99287.19;10514029;28;20314;-70
2023/06/13 19:30:45;;;;;;;4.22;3.15;;;;;;;24.25;25.75;99316.06;10520660;28;20203;-71
2023/06/13 19:35:47;;;;;;;5.75;2.80;;;;;;;23.09;27.01;99300.97;10524073;28;20651;-71
2023/06/13 19:40:49;;;;;;;4.85;3.42;;;;;;;23.97;26.32;99299.34;10520921;28;20328;-71
2023/06/13 19:45:50;;;;;;;4.15;2.90;;;;;;;23.50;26.36;99321.75;10509173;28;20240;-68
2023/06/13 19:50:52;;;;;;;4.95;3.03;;;;;;;23.38;26.68;99335.75;10531810;28;20301;-68
2023/06/13 19:56:16;;;;;;;7.10;3.40;;;;;;;23.01;27.05;99318.72;10524912;28;20714;-70
2023/06/13 20:01:18;;;;;;;6.60;3.15;;;;;;;23.79;26.23;99321.88;10529848;28;20210;-71
2023/06/13 20:06:23;;;;;;;8.10;3.40;;;;;;;22.55;27.26;99331.66;10520468;28;20939;-69
2023/06/13 20:11:27;;;;;;;3.42;2.97;;;;;;;23.21;27.12;99344.28;10533402;28;20290;-71
2023/06/13 20:16:31;;;;;;;3.00;2.70;;;;;;;22.47;26.73;99341.19;10532384;28;20223;-72
2023/06/13 20:21:33;;;;;;;5.00;2.88;;;;;;;23.23;26.92;99356.59;10525805;28;20304;-67
2023/06/13 20:26:37;;;;;;;2.97;2.63;;;;;;;23.84;26.25;99362.00;10536173;28;20548;-67
2023/06/13 20:31:41;;;;;;;5.50;3.17;;;;;;;23.26;26.95;99358.75;10528846;28;20211;-71
2023/06/13 20:36:43;;;;;;;4.00;3.03;;;;;;;23.60;26.67;99335.34;10530244;28;20242;-70
2023/06/13 20:41:48;;;;;;;6.38;3.53;;;;;;;23.44;27.36;99340.09;10527752;28;20544;-70
2023/06/13 20:46:49;;;;;;;6.20;3.28;;;;;;;23.99;27.13;99348.25;10527415;28;20697;-72
2023/06/13 20:51:52;;;;;;;3.50;3.10;;;;;;;22.92;27.49;99357.75;10523923;28;20211;-72
2023/06/13 20:56:54;;;;;;;5.43;2.85;;;;;;;22.76;27.60;99366.00;10529235;28;20219;-68
2023/06/13 21:01:56;;;;;;;3.10;2.80;;;;;;;23.26;27.66;99358.75;10528241;28;20203;-69
2023/06/13 21:06:58;;;;;;;5.28;3.20;;;;;;;23.86;27.66;99338.75;10530952;28;20280;-71
2023/06/13 21:12:00;;;;;;;4.90;3.10;;;;;;;22.88;28.06;99362.97;10529271;28;20272;-71
2023/06/13 21:17:02;;;;;;;4.90;3.30;;;;;;;23.00;28.23;99359.91;10529983;28;20843;-70
2023/06/13 21:22:07;;;;;;;4.70;3.28;;;;;;;23.74;27.85;99335.59;10523749;28;20941;-70
2023/06/13 21:27:10;;;;;;;4.07;3.47;;;;;;;23.42;28.08;99345.03;10531184;28;20345;-72
2023/06/13 21:32:12;;;;;;;5.55;3.50;;;;;;;22.67;28.64;99354.84;10532490;28;20265;-72
2023/06/13 21:37:14;;;;;;;6.97;3.75;;;;;;;22.57;28.79;99348.56;10532076;28;20242;-69
2023/06/13 21:42:15;;;;;;;5.80;3.60;;;;;;;21.74;29.42;99351.22;10528673;28;20207;-71
2023/06/13 21:47:17;;;;;;;6.18;3.90;;;;;;;22.68;29.38;99321.00;10522032;28;20238;-71
2023/06/13 21:52:19;;;;;;;6.57;3.38;;;;;;;20.15;31.47;99316.94;10530695;28;20245;-72
2023/06/13 21:57:20;;;;;;;6.18;3.78;;;;;;;19.77;32.04;99308.75;10521025;28;20754;-72
2023/06/13 22:02:22;;;;;;;4.55;3.75;;;;;;;19.68;32.39;99294.81;10536649;28;20291;-70
2023/06/13 22:07:28;;;;;;;5.90;3.60;;;;;;;23.14;30.12;99267.38;10525232;28;20250;-72
2023/06/13 22:12:33;;;;;;;6.82;3.60;;;;;;;23.89;29.26;99297.22;10527031;28;20721;-71
2023/06/13 22:17:36;;;;;;;5.93;3.58;;;;;;;24.08;29.32;99301.97;10522221;28;20378;-70
2023/06/13 22:22:38;;;;;;;4.28;3.33;;;;;;;22.93;30.74;99353.94;10528528;28;20218;-70
2023/06/13 22:27:40;;;;;;;7.00;3.75;;;;;;;23.17;30.49;99327.66;10527330;28;20238;-70
2023/06/13 22:32:41;;;;;;;5.75;3.40;;;;;;;22.59;31.32;99347.22;10523441;28;20838;-69
2023/06/13 22:37:43;;;;;;;5.22;3.83;;;;;;;21.88;31.62;99364.31;10533330;28;20249;-69
2023/06/13 22:42:45;;;;;;;3.28;2.97;;;;;;;22.22;31.94;99347.47;10524074;28;20202;-71
2023/06/13 22:47:51;;;;;;;6.43;3.70;;;;;;;20.68;32.86;99355.91;10527519;28;20287;-70
2023/06/13 22:52:53;;;;;;;5.05;3.70;;;;;;;22.21;32.11;99316.69;10526265;28;20217;-70
2023/06/13 22:57:55;;;;;;;6.60;3.85;;;;;;;20.73;33.58;99327.94;10530678;28;20281;-69
2023/06/13 23:03:01;;;;;;;5.43;3.75;;;;;;;18.61;35.84;99314.13;10526702;28;20238;-69
2023/06/13 23:08:03;;;;;;;7.45;3.58;;;;;;;18.21;35.53;99300.78;10525083;28;20270;-71
2023/06/13 23:13:05;;;;;;;6.90;3.60;;;;;;;21.64;32.54;99295.94;10530634;28;20884;-70
2023/06/13 23:18:06;;;;;;;8.45;3.67;;;;;;;20.44;34.34;99328.31;10522808;28;20303;-70
2023/06/13 23:23:08;;;;;;;6.30;4.03;;;;;;;18.95;34.73;99318.69;10525600;28;20206;-68
2023/06/13 23:28:10;;;;;;;4.15;3.58;;;;;;;18.22;35.29;99305.09;10528827;28;20226;-69
2023/06/13 23:33:12;;;;;;;8.38;4.30;;;;;;;17.89;35.55;99304.06;10526775;28;20234;-71